sensor_id;sensor_type;location;lat;lon;timestamp;P1;durP1;ratioP1;P2;durP2;ratioP2
43803;SDS011;29430;52.924;-2.388;2024-02-04T00:01:55;0.10;;;0.00;;
43803;SDS011;29430;52.924;-2.388;2024-02-04T00:06:48;0.40;;;0.28;;
43803;SDS011;29430;52.924;-2.388;2024-02-04T00:11:40;0.57;;;0.10;;
43803;SDS011;29430;52.924;-2.388;2024-02-04T00:16:31;1.77;;;0.10;;
43803;SDS011;29430;52.924;-2.388;2024-02-04T00:21:23;0.30;;;0.10;;
43803;SDS011;29430;52.924;-2.388;2024-02-04T00:26:15;0.22;;;0.00;;
43803;SDS011;29430;52.924;-2.388;2024-02-04T00:31:06;0.47;;;0.10;;
43803;SDS011;29430;52.924;-2.388;2024-02-04T00:35:58;0.77;;;0.00;;
43803;SDS011;29430;52.924;-2.388;2024-02-04T00:40:49;1.65;;;0.10;;
43803;SDS011;29430;52.924;-2.388;2024-02-04T00:45:43;0.08;;;0.00;;
43803;SDS011;29430;52.924;-2.388;2024-02-04T00:50:35;1.65;;;0.00;;
43803;SDS011;29430;52.924;-2.388;2024-02-04T00:55:26;1.13;;;0.00;;
43803;SDS011;29430;52.924;-2.388;2024-02-04T01:00:18;0.28;;;0.00;;
43803;SDS011;29430;52.924;-2.388;2024-02-04T01:05:10;0.20;;;0.00;;
43803;SDS011;29430;52.924;-2.388;2024-02-04T01:10:02;0.60;;;0.08;;
43803;SDS011;29430;52.924;-2.388;2024-02-04T01:15:00;0.00;;;0.00;;
43803;SDS011;29430;52.924;-2.388;2024-02-04T01:19:52;0.45;;;0.10;;
43803;SDS011;29430;52.924;-2.388;2024-02-04T01:24:44;1.35;;;0.10;;
43803;SDS011;29430;52.924;-2.388;2024-02-04T01:29:39;0.15;;;0.00;;
43803;SDS011;29430;52.924;-2.388;2024-02-04T01:34:31;0.35;;;0.00;;
43803;SDS011;29430;52.924;-2.388;2024-02-04T01:39:23;0.30;;;0.10;;
43803;SDS011;29430;52.924;-2.388;2024-02-04T01:44:14;0.35;;;0.05;;
43803;SDS011;29430;52.924;-2.388;2024-02-04T01:49:07;1.17;;;0.00;;
43803;SDS011;29430;52.924;-2.388;2024-02-04T01:54:00;0.40;;;0.08;;
43803;SDS011;29430;52.924;-2.388;2024-02-04T01:58:52;0.30;;;0.10;;
43803;SDS011;29430;52.924;-2.388;2024-02-04T02:03:44;1.45;;;0.10;;
43803;SDS011;29430;52.924;-2.388;2024-02-04T02:08:36;0.30;;;0.10;;
43803;SDS011;29430;52.924;-2.388;2024-02-04T02:13:29;0.47;;;0.10;;
43803;SDS011;29430;52.924;-2.388;2024-02-04T02:28:13;0.30;;;0.10;;
43803;SDS011;29430;52.924;-2.388;2024-02-04T02:33:05;1.35;;;0.20;;
43803;SDS011;29430;52.924;-2.388;2024-02-04T02:38:01;0.88;;;0.20;;
43803;SDS011;29430;52.924;-2.388;2024-02-04T02:43:17;0.85;;;0.20;;
43803;SDS011;29430;52.924;-2.388;2024-02-04T02:48:10;0.38;;;0.10;;
43803;SDS011;29430;52.924;-2.388;2024-02-04T02:53:03;0.43;;;0.20;;
43803;SDS011;29430;52.924;-2.388;2024-02-04T02:57:55;0.40;;;0.10;;
43803;SDS011;29430;52.924;-2.388;2024-02-04T03:02:47;0.45;;;0.15;;
43803;SDS011;29430;52.924;-2.388;2024-02-04T03:07:39;1.13;;;0.20;;
43803;SDS011;29430;52.924;-2.388;2024-02-04T03:12:30;0.77;;;0.10;;
43803;SDS011;29430;52.924;-2.388;2024-02-04T03:17:22;0.57;;;0.20;;
43803;SDS011;29430;52.924;-2.388;2024-02-04T03:22:14;1.38;;;0.10;;
43803;SDS011;29430;52.924;-2.388;2024-02-04T03:27:06;0.88;;;0.10;;
43803;SDS011;29430;52.924;-2.388;2024-02-04T03:31:58;0.30;;;0.10;;
43803;SDS011;29430;52.924;-2.388;2024-02-04T03:36:50;0.50;;;0.10;;
43803;SDS011;29430;52.924;-2.388;2024-02-04T03:41:42;0.60;;;0.10;;
43803;SDS011;29430;52.924;-2.388;2024-02-04T03:46:33;0.35;;;0.10;;
43803;SDS011;29430;52.924;-2.388;2024-02-04T03:51:25;0.10;;;0.00;;
43803;SDS011;29430;52.924;-2.388;2024-02-04T03:56:17;0.00;;;0.00;;
43803;SDS011;29430;52.924;-2.388;2024-02-04T04:01:12;0.40;;;0.10;;
43803;SDS011;29430;52.924;-2.388;2024-02-04T04:06:04;0.20;;;0.05;;
43803;SDS011;29430;52.924;-2.388;2024-02-04T04:10:57;0.05;;;0.00;;
43803;SDS011;29430;52.924;-2.388;2024-02-04T04:15:50;0.00;;;0.00;;
43803;SDS011;29430;52.924;-2.388;2024-02-04T04:20:42;0.55;;;0.10;;
43803;SDS011;29430;52.924;-2.388;2024-02-04T04:25:33;0.15;;;0.03;;
43803;SDS011;29430;52.924;-2.388;2024-02-04T04:30:25;0.20;;;0.00;;
43803;SDS011;29430;52.924;-2.388;2024-02-04T04:35:17;0.20;;;0.00;;
43803;SDS011;29430;52.924;-2.388;2024-02-04T04:40:09;0.00;;;0.00;;
43803;SDS011;29430;52.924;-2.388;2024-02-04T04:45:01;0.10;;;0.00;;
43803;SDS011;29430;52.924;-2.388;2024-02-04T04:49:53;0.75;;;0.00;;
43803;SDS011;29430;52.924;-2.388;2024-02-04T04:54:44;1.10;;;0.00;;
43803;SDS011;29430;52.924;-2.388;2024-02-04T04:59:36;0.10;;;0.00;;
43803;SDS011;29430;52.924;-2.388;2024-02-04T05:04:29;0.00;;;0.00;;
43803;SDS011;29430;52.924;-2.388;2024-02-04T05:09:21;0.15;;;0.00;;
43803;SDS011;29430;52.924;-2.388;2024-02-04T05:14:12;0.00;;;0.00;;
43803;SDS011;29430;52.924;-2.388;2024-02-04T05:19:04;0.00;;;0.00;;
43803;SDS011;29430;52.924;-2.388;2024-02-04T05:23:56;0.00;;;0.00;;
43803;SDS011;29430;52.924;-2.388;2024-02-04T05:28:48;0.10;;;0.00;;
43803;SDS011;29430;52.924;-2.388;2024-02-04T05:33:39;0.28;;;0.00;;
43803;SDS011;29430;52.924;-2.388;2024-02-04T05:38:31;0.30;;;0.00;;
43803;SDS011;29430;52.924;-2.388;2024-02-04T05:43:23;0.22;;;0.00;;
43803;SDS011;29430;52.924;-2.388;2024-02-04T05:48:15;0.08;;;0.00;;
43803;SDS011;29430;52.924;-2.388;2024-02-04T05:53:06;0.00;;;0.00;;
43803;SDS011;29430;52.924;-2.388;2024-02-04T05:57:58;0.10;;;0.00;;
43803;SDS011;29430;52.924;-2.388;2024-02-04T06:02:50;0.20;;;0.00;;
43803;SDS011;29430;52.924;-2.388;2024-02-04T06:07:42;0.10;;;0.00;;
43803;SDS011;29430;52.924;-2.388;2024-02-04T06:12:34;0.08;;;0.00;;
43803;SDS011;29430;52.924;-2.388;2024-02-04T06:17:26;0.00;;;0.00;;
43803;SDS011;29430;52.924;-2.388;2024-02-04T06:22:17;0.00;;;0.00;;
43803;SDS011;29430;52.924;-2.388;2024-02-04T06:27:10;0.25;;;0.00;;
43803;SDS011;29430;52.924;-2.388;2024-02-04T06:32:02;0.10;;;0.00;;
43803;SDS011;29430;52.924;-2.388;2024-02-04T06:36:54;0.00;;;0.00;;
43803;SDS011;29430;52.924;-2.388;2024-02-04T06:41:46;0.20;;;0.00;;
43803;SDS011;29430;52.924;-2.388;2024-02-04T06:46:37;0.38;;;0.00;;
43803;SDS011;29430;52.924;-2.388;2024-02-04T06:51:29;0.30;;;0.00;;
43803;SDS011;29430;52.924;-2.388;2024-02-04T06:56:21;0.57;;;0.10;;
43803;SDS011;29430;52.924;-2.388;2024-02-04T07:01:12;0.40;;;0.10;;
43803;SDS011;29430;52.924;-2.388;2024-02-04T07:06:04;1.40;;;0.20;;
43803;SDS011;29430;52.924;-2.388;2024-02-04T07:10:57;0.38;;;0.08;;
43803;SDS011;29430;52.924;-2.388;2024-02-04T07:15:50;0.40;;;0.10;;
43803;SDS011;29430;52.924;-2.388;2024-02-04T07:20:42;1.35;;;0.20;;
43803;SDS011;29430;52.924;-2.388;2024-02-04T07:25:34;0.82;;;0.20;;
43803;SDS011;29430;52.924;-2.388;2024-02-04T07:30:26;0.73;;;0.20;;
43803;SDS011;29430;52.924;-2.388;2024-02-04T07:35:18;1.35;;;0.28;;
43803;SDS011;29430;52.924;-2.388;2024-02-04T07:40:10;1.00;;;0.20;;
43803;SDS011;29430;52.924;-2.388;2024-02-04T07:45:02;0.90;;;0.20;;
43803;SDS011;29430;52.924;-2.388;2024-02-04T07:50:00;1.55;;;0.30;;
43803;SDS011;29430;52.924;-2.388;2024-02-04T07:54:52;3.58;;;0.30;;
43803;SDS011;29430;52.924;-2.388;2024-02-04T07:59:43;0.93;;;0.30;;
43803;SDS011;29430;52.924;-2.388;2024-02-04T08:04:35;2.85;;;0.93;;
43803;SDS011;29430;52.924;-2.388;2024-02-04T08:09:27;3.60;;;0.60;;
43803;SDS011;29430;52.924;-2.388;2024-02-04T08:14:18;5.00;;;0.50;;
43803;SDS011;29430;52.924;-2.388;2024-02-04T08:19:10;2.78;;;0.60;;
43803;SDS011;29430;52.924;-2.388;2024-02-04T08:24:02;3.25;;;0.45;;
43803;SDS011;29430;52.924;-2.388;2024-02-04T08:28:54;5.85;;;0.60;;
43803;SDS011;29430;52.924;-2.388;2024-02-04T08:33:46;3.70;;;0.47;;
43803;SDS011;29430;52.924;-2.388;2024-02-04T08:38:38;3.83;;;0.50;;
43803;SDS011;29430;52.924;-2.388;2024-02-04T08:43:29;4.28;;;0.50;;
43803;SDS011;29430;52.924;-2.388;2024-02-04T08:48:21;1.60;;;0.30;;
43803;SDS011;29430;52.924;-2.388;2024-02-04T08:53:13;1.80;;;0.30;;
43803;SDS011;29430;52.924;-2.388;2024-02-04T08:58:04;3.17;;;0.30;;
43803;SDS011;29430;52.924;-2.388;2024-02-04T09:02:56;2.72;;;0.30;;
43803;SDS011;29430;52.924;-2.388;2024-02-04T09:07:48;1.58;;;0.30;;
43803;SDS011;29430;52.924;-2.388;2024-02-04T09:12:40;2.22;;;0.30;;
43803;SDS011;29430;52.924;-2.388;2024-02-04T09:17:32;3.33;;;0.30;;
43803;SDS011;29430;52.924;-2.388;2024-02-04T09:22:26;1.88;;;0.30;;
43803;SDS011;29430;52.924;-2.388;2024-02-04T09:27:18;3.67;;;0.30;;
43803;SDS011;29430;52.924;-2.388;2024-02-04T09:32:10;1.90;;;0.20;;
43803;SDS011;29430;52.924;-2.388;2024-02-04T09:37:02;1.70;;;0.30;;
43803;SDS011;29430;52.924;-2.388;2024-02-04T09:41:54;2.55;;;0.30;;
43803;SDS011;29430;52.924;-2.388;2024-02-04T09:46:46;1.75;;;0.20;;
43803;SDS011;29430;52.924;-2.388;2024-02-04T09:51:39;2.30;;;0.20;;
43803;SDS011;29430;52.924;-2.388;2024-02-04T09:56:51;2.10;;;0.20;;
43803;SDS011;29430;52.924;-2.388;2024-02-04T10:01:43;2.65;;;0.20;;
43803;SDS011;29430;52.924;-2.388;2024-02-04T10:06:36;1.17;;;0.30;;
43803;SDS011;29430;52.924;-2.388;2024-02-04T10:11:28;4.93;;;0.50;;
43803;SDS011;29430;52.924;-2.388;2024-02-04T10:16:19;3.83;;;0.35;;
43803;SDS011;29430;52.924;-2.388;2024-02-04T10:21:20;3.38;;;0.28;;
43803;SDS011;29430;52.924;-2.388;2024-02-04T10:26:15;3.75;;;0.25;;
43803;SDS011;29430;52.924;-2.388;2024-02-04T10:31:08;2.38;;;0.30;;
43803;SDS011;29430;52.924;-2.388;2024-02-04T10:36:01;4.05;;;0.20;;
43803;SDS011;29430;52.924;-2.388;2024-02-04T10:40:53;2.17;;;0.10;;
43803;SDS011;29430;52.924;-2.388;2024-02-04T10:45:45;2.05;;;0.20;;
43803;SDS011;29430;52.924;-2.388;2024-02-04T10:50:38;4.65;;;0.20;;
43803;SDS011;29430;52.924;-2.388;2024-02-04T10:55:30;1.33;;;0.10;;
43803;SDS011;29430;52.924;-2.388;2024-02-04T11:00:22;2.17;;;0.20;;
43803;SDS011;29430;52.924;-2.388;2024-02-04T11:05:14;1.02;;;0.13;;
43803;SDS011;29430;52.924;-2.388;2024-02-04T11:10:09;1.42;;;0.13;;
43803;SDS011;29430;52.924;-2.388;2024-02-04T11:15:03;1.80;;;0.10;;
43803;SDS011;29430;52.924;-2.388;2024-02-04T11:20:02;1.08;;;0.13;;
43803;SDS011;29430;52.924;-2.388;2024-02-04T11:30:11;2.28;;;0.20;;
43803;SDS011;29430;52.924;-2.388;2024-02-04T11:35:02;1.30;;;0.20;;
43803;SDS011;29430;52.924;-2.388;2024-02-04T11:39:59;3.97;;;0.20;;
43803;SDS011;29430;52.924;-2.388;2024-02-04T11:45:05;1.67;;;0.20;;
43803;SDS011;29430;52.924;-2.388;2024-02-04T11:49:58;2.70;;;0.17;;
43803;SDS011;29430;52.924;-2.388;2024-02-04T11:54:50;1.42;;;0.15;;
43803;SDS011;29430;52.924;-2.388;2024-02-04T11:59:43;1.98;;;0.10;;
43803;SDS011;29430;52.924;-2.388;2024-02-04T12:04:36;2.05;;;0.15;;
43803;SDS011;29430;52.924;-2.388;2024-02-04T12:09:28;3.97;;;0.28;;
43803;SDS011;29430;52.924;-2.388;2024-02-04T12:14:20;1.80;;;0.15;;
43803;SDS011;29430;52.924;-2.388;2024-02-04T12:19:12;3.38;;;0.20;;
43803;SDS011;29430;52.924;-2.388;2024-02-04T12:24:04;2.35;;;0.13;;
43803;SDS011;29430;52.924;-2.388;2024-02-04T12:28:56;2.30;;;0.20;;
43803;SDS011;29430;52.924;-2.388;2024-02-04T12:33:55;2.03;;;0.10;;
43803;SDS011;29430;52.924;-2.388;2024-02-04T12:38:50;3.50;;;0.20;;
43803;SDS011;29430;52.924;-2.388;2024-02-04T12:43:47;2.67;;;0.10;;
43803;SDS011;29430;52.924;-2.388;2024-02-04T12:48:53;2.90;;;0.20;;
43803;SDS011;29430;52.924;-2.388;2024-02-04T12:53:45;3.80;;;0.40;;
43803;SDS011;29430;52.924;-2.388;2024-02-04T12:58:44;2.65;;;0.30;;
43803;SDS011;29430;52.924;-2.388;2024-02-04T13:03:35;1.33;;;0.20;;
43803;SDS011;29430;52.924;-2.388;2024-02-04T13:08:27;5.13;;;0.30;;
43803;SDS011;29430;52.924;-2.388;2024-02-04T13:13:21;7.35;;;0.30;;
43803;SDS011;29430;52.924;-2.388;2024-02-04T13:18:12;1.63;;;0.20;;
43803;SDS011;29430;52.924;-2.388;2024-02-04T13:23:10;5.78;;;0.20;;
43803;SDS011;29430;52.924;-2.388;2024-02-04T13:28:02;3.80;;;0.30;;
43803;SDS011;29430;52.924;-2.388;2024-02-04T13:32:56;2.88;;;0.35;;
43803;SDS011;29430;52.924;-2.388;2024-02-04T13:37:48;2.63;;;0.40;;
43803;SDS011;29430;52.924;-2.388;2024-02-04T13:42:43;4.93;;;0.32;;
43803;SDS011;29430;52.924;-2.388;2024-02-04T13:47:35;2.28;;;0.30;;
43803;SDS011;29430;52.924;-2.388;2024-02-04T13:52:28;3.80;;;0.20;;
43803;SDS011;29430;52.924;-2.388;2024-02-04T13:57:20;3.30;;;0.40;;
43803;SDS011;29430;52.924;-2.388;2024-02-04T14:02:12;3.25;;;0.30;;
43803;SDS011;29430;52.924;-2.388;2024-02-04T14:07:03;2.30;;;0.30;;
43803;SDS011;29430;52.924;-2.388;2024-02-04T14:11:55;2.22;;;0.40;;
43803;SDS011;29430;52.924;-2.388;2024-02-04T14:16:48;5.90;;;0.50;;
43803;SDS011;29430;52.924;-2.388;2024-02-04T14:21:42;4.47;;;0.52;;
43803;SDS011;29430;52.924;-2.388;2024-02-04T14:26:35;4.70;;;0.50;;
43803;SDS011;29430;52.924;-2.388;2024-02-04T14:31:26;5.63;;;0.50;;
43803;SDS011;29430;52.924;-2.388;2024-02-04T14:36:19;2.83;;;0.40;;
43803;SDS011;29430;52.924;-2.388;2024-02-04T14:41:11;6.45;;;0.50;;
43803;SDS011;29430;52.924;-2.388;2024-02-04T14:46:04;10.05;;;1.27;;
43803;SDS011;29430;52.924;-2.388;2024-02-04T14:50:56;7.07;;;0.63;;
43803;SDS011;29430;52.924;-2.388;2024-02-04T14:55:49;8.88;;;0.90;;
43803;SDS011;29430;52.924;-2.388;2024-02-04T15:00:41;7.65;;;0.90;;
43803;SDS011;29430;52.924;-2.388;2024-02-04T15:05:33;9.85;;;0.60;;
43803;SDS011;29430;52.924;-2.388;2024-02-04T15:10:25;8.02;;;0.70;;
43803;SDS011;29430;52.924;-2.388;2024-02-04T15:15:18;13.73;;;0.77;;
43803;SDS011;29430;52.924;-2.388;2024-02-04T15:20:10;6.03;;;0.85;;
43803;SDS011;29430;52.924;-2.388;2024-02-04T15:25:09;5.15;;;0.70;;
43803;SDS011;29430;52.924;-2.388;2024-02-04T15:30:06;6.93;;;0.73;;
43803;SDS011;29430;52.924;-2.388;2024-02-04T15:35:00;9.88;;;0.80;;
43803;SDS011;29430;52.924;-2.388;2024-02-04T15:39:52;9.43;;;0.90;;
43803;SDS011;29430;52.924;-2.388;2024-02-04T15:44:45;9.43;;;0.82;;
43803;SDS011;29430;52.924;-2.388;2024-02-04T15:49:37;16.48;;;1.20;;
43803;SDS011;29430;52.924;-2.388;2024-02-04T15:54:29;11.20;;;1.13;;
43803;SDS011;29430;52.924;-2.388;2024-02-04T15:59:24;10.00;;;1.17;;
43803;SDS011;29430;52.924;-2.388;2024-02-04T16:04:18;18.00;;;1.58;;
43803;SDS011;29430;52.924;-2.388;2024-02-04T16:09:11;16.88;;;2.20;;
43803;SDS011;29430;52.924;-2.388;2024-02-04T16:14:04;20.25;;;2.40;;
43803;SDS011;29430;52.924;-2.388;2024-02-04T16:19:06;23.40;;;2.05;;
43803;SDS011;29430;52.924;-2.388;2024-02-04T16:24:00;17.23;;;1.80;;
43803;SDS011;29430;52.924;-2.388;2024-02-04T16:28:52;23.73;;;2.58;;
43803;SDS011;29430;52.924;-2.388;2024-02-04T16:33:44;20.23;;;2.20;;
43803;SDS011;29430;52.924;-2.388;2024-02-04T16:38:35;19.75;;;2.97;;
43803;SDS011;29430;52.924;-2.388;2024-02-04T16:43:27;19.02;;;2.05;;
43803;SDS011;29430;52.924;-2.388;2024-02-04T16:48:19;21.38;;;1.35;;
43803;SDS011;29430;52.924;-2.388;2024-02-04T16:53:11;17.92;;;2.65;;
43803;SDS011;29430;52.924;-2.388;2024-02-04T16:58:04;12.85;;;1.92;;
43803;SDS011;29430;52.924;-2.388;2024-02-04T17:02:56;28.58;;;2.97;;
43803;SDS011;29430;52.924;-2.388;2024-02-04T17:07:48;17.45;;;2.47;;
43803;SDS011;29430;52.924;-2.388;2024-02-04T17:12:40;19.25;;;3.00;;
43803;SDS011;29430;52.924;-2.388;2024-02-04T17:17:33;19.95;;;2.85;;
43803;SDS011;29430;52.924;-2.388;2024-02-04T17:22:27;23.20;;;2.38;;
43803;SDS011;29430;52.924;-2.388;2024-02-04T17:27:21;20.90;;;2.38;;
43803;SDS011;29430;52.924;-2.388;2024-02-04T17:32:15;16.77;;;2.47;;
43803;SDS011;29430;52.924;-2.388;2024-02-04T17:37:11;21.30;;;2.28;;
43803;SDS011;29430;52.924;-2.388;2024-02-04T17:42:03;19.42;;;2.70;;
43803;SDS011;29430;52.924;-2.388;2024-02-04T17:46:57;15.52;;;1.88;;
43803;SDS011;29430;52.924;-2.388;2024-02-04T17:51:50;24.00;;;2.63;;
43803;SDS011;29430;52.924;-2.388;2024-02-04T17:56:41;24.55;;;2.53;;
43803;SDS011;29430;52.924;-2.388;2024-02-04T18:01:33;19.73;;;2.47;;
43803;SDS011;29430;52.924;-2.388;2024-02-04T18:06:25;24.60;;;2.85;;
43803;SDS011;29430;52.924;-2.388;2024-02-04T18:11:18;19.77;;;2.90;;
43803;SDS011;29430;52.924;-2.388;2024-02-04T18:16:10;18.08;;;2.50;;
43803;SDS011;29430;52.924;-2.388;2024-02-04T18:21:03;20.77;;;2.30;;
43803;SDS011;29430;52.924;-2.388;2024-02-04T18:25:56;15.95;;;2.05;;
43803;SDS011;29430;52.924;-2.388;2024-02-04T18:30:47;13.50;;;1.90;;
43803;SDS011;29430;52.924;-2.388;2024-02-04T18:35:41;19.83;;;2.03;;
43803;SDS011;29430;52.924;-2.388;2024-02-04T18:40:33;19.65;;;2.38;;
43803;SDS011;29430;52.924;-2.388;2024-02-04T18:45:28;20.45;;;2.42;;
43803;SDS011;29430;52.924;-2.388;2024-02-04T18:50:19;20.63;;;2.67;;
43803;SDS011;29430;52.924;-2.388;2024-02-04T18:55:11;19.55;;;1.98;;
43803;SDS011;29430;52.924;-2.388;2024-02-04T19:00:03;21.67;;;2.53;;
43803;SDS011;29430;52.924;-2.388;2024-02-04T19:04:57;24.17;;;2.28;;
43803;SDS011;29430;52.924;-2.388;2024-02-04T19:09:49;20.67;;;2.55;;
43803;SDS011;29430;52.924;-2.388;2024-02-04T19:14:42;23.67;;;2.30;;
43803;SDS011;29430;52.924;-2.388;2024-02-04T19:19:35;16.63;;;2.33;;
43803;SDS011;29430;52.924;-2.388;2024-02-04T19:24:27;25.27;;;2.15;;
43803;SDS011;29430;52.924;-2.388;2024-02-04T19:29:19;22.95;;;2.97;;
43803;SDS011;29430;52.924;-2.388;2024-02-04T19:34:11;25.05;;;2.72;;
43803;SDS011;29430;52.924;-2.388;2024-02-04T19:39:03;19.33;;;2.00;;
43803;SDS011;29430;52.924;-2.388;2024-02-04T19:43:56;30.98;;;3.58;;
43803;SDS011;29430;52.924;-2.388;2024-02-04T19:48:48;20.52;;;2.58;;
43803;SDS011;29430;52.924;-2.388;2024-02-04T19:53:41;20.63;;;2.88;;
43803;SDS011;29430;52.924;-2.388;2024-02-04T19:58:32;22.73;;;2.70;;
43803;SDS011;29430;52.924;-2.388;2024-02-04T20:03:24;20.30;;;2.88;;
43803;SDS011;29430;52.924;-2.388;2024-02-04T20:08:16;25.88;;;2.55;;
43803;SDS011;29430;52.924;-2.388;2024-02-04T20:13:07;21.00;;;2.22;;
43803;SDS011;29430;52.924;-2.388;2024-02-04T20:17:59;25.58;;;3.38;;
43803;SDS011;29430;52.924;-2.388;2024-02-04T20:22:51;23.25;;;3.35;;
43803;SDS011;29430;52.924;-2.388;2024-02-04T20:27:45;25.17;;;2.90;;
43803;SDS011;29430;52.924;-2.388;2024-02-04T20:32:37;25.33;;;2.63;;
43803;SDS011;29430;52.924;-2.388;2024-02-04T20:37:29;25.85;;;3.38;;
43803;SDS011;29430;52.924;-2.388;2024-02-04T20:42:21;22.55;;;2.85;;
43803;SDS011;29430;52.924;-2.388;2024-02-04T20:47:13;22.10;;;2.63;;
43803;SDS011;29430;52.924;-2.388;2024-02-04T20:52:04;24.95;;;3.15;;
43803;SDS011;29430;52.924;-2.388;2024-02-04T20:56:57;41.35;;;3.28;;
43803;SDS011;29430;52.924;-2.388;2024-02-04T21:01:49;26.30;;;3.75;;
43803;SDS011;29430;52.924;-2.388;2024-02-04T21:06:41;23.75;;;2.85;;
43803;SDS011;29430;52.924;-2.388;2024-02-04T21:11:33;22.60;;;2.97;;
43803;SDS011;29430;52.924;-2.388;2024-02-04T21:16:25;18.70;;;2.17;;
43803;SDS011;29430;52.924;-2.388;2024-02-04T21:21:16;19.52;;;2.85;;
43803;SDS011;29430;52.924;-2.388;2024-02-04T21:26:08;33.05;;;2.88;;
43803;SDS011;29430;52.924;-2.388;2024-02-04T21:31:00;17.10;;;1.92;;
43803;SDS011;29430;52.924;-2.388;2024-02-04T21:35:52;24.15;;;2.65;;
43803;SDS011;29430;52.924;-2.388;2024-02-04T21:40:47;22.33;;;3.40;;
43803;SDS011;29430;52.924;-2.388;2024-02-04T21:45:40;22.60;;;2.92;;
43803;SDS011;29430;52.924;-2.388;2024-02-04T21:50:32;25.20;;;2.90;;
43803;SDS011;29430;52.924;-2.388;2024-02-04T21:55:27;25.67;;;3.20;;
43803;SDS011;29430;52.924;-2.388;2024-02-04T22:00:18;31.90;;;3.65;;
43803;SDS011;29430;52.924;-2.388;2024-02-04T22:05:10;34.70;;;3.72;;
43803;SDS011;29430;52.924;-2.388;2024-02-04T22:10:02;29.30;;;3.22;;
43803;SDS011;29430;52.924;-2.388;2024-02-04T22:14:53;24.35;;;2.97;;
43803;SDS011;29430;52.924;-2.388;2024-02-04T22:19:48;20.58;;;2.22;;
43803;SDS011;29430;52.924;-2.388;2024-02-04T22:24:39;25.05;;;3.03;;
43803;SDS011;29430;52.924;-2.388;2024-02-04T22:29:31;39.28;;;3.72;;
43803;SDS011;29430;52.924;-2.388;2024-02-04T22:34:23;32.35;;;2.40;;
43803;SDS011;29430;52.924;-2.388;2024-02-04T22:39:15;27.13;;;3.03;;
43803;SDS011;29430;52.924;-2.388;2024-02-04T22:44:06;20.58;;;2.13;;
43803;SDS011;29430;52.924;-2.388;2024-02-04T22:48:58;16.75;;;2.33;;
43803;SDS011;29430;52.924;-2.388;2024-02-04T22:53:50;25.58;;;2.72;;
43803;SDS011;29430;52.924;-2.388;2024-02-04T22:58:44;21.67;;;2.60;;
43803;SDS011;29430;52.924;-2.388;2024-02-04T23:03:36;19.45;;;2.08;;
43803;SDS011;29430;52.924;-2.388;2024-02-04T23:08:27;22.70;;;2.60;;
43803;SDS011;29430;52.924;-2.388;2024-02-04T23:13:20;16.90;;;2.00;;
43803;SDS011;29430;52.924;-2.388;2024-02-04T23:18:11;21.67;;;1.77;;
43803;SDS011;29430;52.924;-2.388;2024-02-04T23:23:03;19.15;;;2.35;;
43803;SDS011;29430;52.924;-2.388;2024-02-04T23:27:55;18.33;;;2.30;;
43803;SDS011;29430;52.924;-2.388;2024-02-04T23:32:47;17.88;;;2.05;;
43803;SDS011;29430;52.924;-2.388;2024-02-04T23:37:39;28.25;;;2.10;;
43803;SDS011;29430;52.924;-2.388;2024-02-04T23:42:31;21.65;;;3.47;;
43803;SDS011;29430;52.924;-2.388;2024-02-04T23:47:23;19.17;;;2.75;;
43803;SDS011;29430;52.924;-2.388;2024-02-04T23:52:15;20.20;;;1.95;;
43803;SDS011;29430;52.924;-2.388;2024-02-04T23:57:07;15.32;;;1.75;;
